Patch Leg, Louisiana
Current Conditions -  °F | °C
As of 5:55 PM on Monday 22 Dec 2014 (Local Time) from KIER Reporting Station
Clear Clear  
Wind Chill: 65°   Ceiling: Unl
Heat Index: 65°   Visibility: 10mi
Dew Point: 60°   Wind: 0mph
Humidity: 84%   Direction: NA
Pressure: 29.6"   Gusts: NA
Location:  31.6668°N, 92.8023°W
Report Text: KIER 222355Z AUTO 00000KT 10SM CLR 19/16 A2960 RMK AO2 T01850157 10216 20182
Loading
Personal Weather Stations






























Interactive Weather Map New forecast layout! Learn more

10-Day Weather Forecast

Advertisements
Track Severe Weather on mobile